sensor_id;sensor_type;location;lat;lon;timestamp;temperature;humidity
3134;DHT22;1577;49.912;10.924;2023-07-08T00:00:20;17.20;89.30
3134;DHT22;1577;49.912;10.924;2023-07-08T00:02:46;17.00;89.60
3134;DHT22;1577;49.912;10.924;2023-07-08T00:05:14;17.00;90.40
3134;DHT22;1577;49.912;10.924;2023-07-08T00:07:40;17.00;90.70
3134;DHT22;1577;49.912;10.924;2023-07-08T06:41:46;17.00;90.90
3134;DHT22;1577;49.912;10.924;2023-07-08T06:44:12;21.10;99.90
3134;DHT22;1577;49.912;10.924;2023-07-08T06:46:38;22.20;99.90
3134;DHT22;1577;49.912;10.924;2023-07-08T06:49:04;23.70;99.70
3134;DHT22;1577;49.912;10.924;2023-07-08T06:51:34;25.40;98.60
3134;DHT22;1577;49.912;10.924;2023-07-08T06:53:59;27.30;94.50
3134;DHT22;1577;49.912;10.924;2023-07-08T06:56:25;28.80;91.40
3134;DHT22;1577;49.912;10.924;2023-07-08T06:58:50;29.50;84.50
3134;DHT22;1577;49.912;10.924;2023-07-08T07:01:16;30.40;79.60
3134;DHT22;1577;49.912;10.924;2023-07-08T07:03:43;31.60;77.40
3134;DHT22;1577;49.912;10.924;2023-07-08T07:06:09;32.80;70.40
3134;DHT22;1577;49.912;10.924;2023-07-08T07:08:34;34.00;66.10
3134;DHT22;1577;49.912;10.924;2023-07-08T07:11:00;35.10;64.00
3134;DHT22;1577;49.912;10.924;2023-07-08T07:13:25;36.00;58.10
3134;DHT22;1577;49.912;10.924;2023-07-08T07:15:51;36.60;55.40
3134;DHT22;1577;49.912;10.924;2023-07-08T07:18:16;37.40;54.00
3134;DHT22;1577;49.912;10.924;2023-07-08T07:20:49;38.00;52.70
3134;DHT22;1577;49.912;10.924;2023-07-08T07:23:15;38.40;50.50
3134;DHT22;1577;49.912;10.924;2023-07-08T07:25:41;38.90;48.90
3134;DHT22;1577;49.912;10.924;2023-07-08T07:28:07;39.50;47.40
3134;DHT22;1577;49.912;10.924;2023-07-08T07:30:33;39.90;46.40
3134;DHT22;1577;49.912;10.924;2023-07-08T07:32:59;40.30;45.70
3134;DHT22;1577;49.912;10.924;2023-07-08T07:35:25;40.50;44.30
3134;DHT22;1577;49.912;10.924;2023-07-08T07:37:51;40.90;43.70
3134;DHT22;1577;49.912;10.924;2023-07-08T07:40:17;41.10;43.50
3134;DHT22;1577;49.912;10.924;2023-07-08T07:42:44;41.30;43.80
3134;DHT22;1577;49.912;10.924;2023-07-08T07:45:11;40.60;42.30
3134;DHT22;1577;49.912;10.924;2023-07-08T07:47:37;40.20;42.30
3134;DHT22;1577;49.912;10.924;2023-07-08T07:50:04;40.10;42.10
3134;DHT22;1577;49.912;10.924;2023-07-08T07:52:31;40.40;41.80
3134;DHT22;1577;49.912;10.924;2023-07-08T07:54:56;40.60;42.00
3134;DHT22;1577;49.912;10.924;2023-07-08T07:57:22;40.90;41.80
3134;DHT22;1577;49.912;10.924;2023-07-08T07:59:48;41.40;41.40
3134;DHT22;1577;49.912;10.924;2023-07-08T08:02:15;41.40;41.00
3134;DHT22;1577;49.912;10.924;2023-07-08T08:04:40;41.60;39.90
3134;DHT22;1577;49.912;10.924;2023-07-08T08:07:06;41.40;37.80
3134;DHT22;1577;49.912;10.924;2023-07-08T08:09:32;41.10;37.90
3134;DHT22;1577;49.912;10.924;2023-07-08T08:11:57;40.30;37.40
3134;DHT22;1577;49.912;10.924;2023-07-08T08:14:23;39.60;38.10
3134;DHT22;1577;49.912;10.924;2023-07-08T08:16:49;39.70;37.90
3134;DHT22;1577;49.912;10.924;2023-07-08T08:19:14;39.90;37.70
3134;DHT22;1577;49.912;10.924;2023-07-08T08:21:40;40.10;38.20
3134;DHT22;1577;49.912;10.924;2023-07-08T08:24:08;40.30;37.20
3134;DHT22;1577;49.912;10.924;2023-07-08T08:26:34;40.10;36.60
3134;DHT22;1577;49.912;10.924;2023-07-08T08:29:00;40.40;36.30
3134;DHT22;1577;49.912;10.924;2023-07-08T08:31:26;40.40;35.90
3134;DHT22;1577;49.912;10.924;2023-07-08T08:33:52;39.90;35.90
3134;DHT22;1577;49.912;10.924;2023-07-08T08:36:20;39.90;36.70
3134;DHT22;1577;49.912;10.924;2023-07-08T08:38:46;39.70;35.80
3134;DHT22;1577;49.912;10.924;2023-07-08T08:41:13;39.90;36.70
3134;DHT22;1577;49.912;10.924;2023-07-08T08:43:40;39.80;36.40
3134;DHT22;1577;49.912;10.924;2023-07-08T08:51:48;39.80;35.50
3134;DHT22;1577;49.912;10.924;2023-07-08T08:54:14;39.50;36.10
3134;DHT22;1577;49.912;10.924;2023-07-08T08:56:58;39.20;35.70
3134;DHT22;1577;49.912;10.924;2023-07-08T09:02:37;39.20;36.10
3134;DHT22;1577;49.912;10.924;2023-07-08T09:05:10;39.20;34.90
3134;DHT22;1577;49.912;10.924;2023-07-08T09:10:47;38.40;36.10
3134;DHT22;1577;49.912;10.924;2023-07-08T09:13:24;38.40;36.40
3134;DHT22;1577;49.912;10.924;2023-07-08T09:16:20;38.70;35.80
3134;DHT22;1577;49.912;10.924;2023-07-08T09:19:09;39.20;35.40
3134;DHT22;1577;49.912;10.924;2023-07-08T09:21:52;38.90;34.80
3134;DHT22;1577;49.912;10.924;2023-07-08T09:26:55;39.50;33.90
3134;DHT22;1577;49.912;10.924;2023-07-08T09:29:24;39.60;34.70
3134;DHT22;1577;49.912;10.924;2023-07-08T09:31:50;39.50;33.80
3134;DHT22;1577;49.912;10.924;2023-07-08T09:34:19;39.30;34.20
3134;DHT22;1577;49.912;10.924;2023-07-08T09:36:47;39.30;34.10
3134;DHT22;1577;49.912;10.924;2023-07-08T09:39:16;39.00;33.80
3134;DHT22;1577;49.912;10.924;2023-07-08T09:41:44;39.20;34.80
3134;DHT22;1577;49.912;10.924;2023-07-08T09:46:43;39.20;35.30
3134;DHT22;1577;49.912;10.924;2023-07-08T09:49:17;39.20;32.80
3134;DHT22;1577;49.912;10.924;2023-07-08T09:51:44;38.80;33.00
3134;DHT22;1577;49.912;10.924;2023-07-08T09:54:09;38.50;33.10
3134;DHT22;1577;49.912;10.924;2023-07-08T09:56:38;38.30;33.60
3134;DHT22;1577;49.912;10.924;2023-07-08T09:59:04;38.40;34.50
3134;DHT22;1577;49.912;10.924;2023-07-08T10:01:30;38.30;34.20
3134;DHT22;1577;49.912;10.924;2023-07-08T10:03:59;38.60;32.60
3134;DHT22;1577;49.912;10.924;2023-07-08T10:06:28;38.40;32.10
3134;DHT22;1577;49.912;10.924;2023-07-08T10:08:55;38.10;33.40
3134;DHT22;1577;49.912;10.924;2023-07-08T10:11:36;37.80;33.50
3134;DHT22;1577;49.912;10.924;2023-07-08T10:16:49;38.20;33.40
3134;DHT22;1577;49.912;10.924;2023-07-08T10:19:17;37.40;33.60
3134;DHT22;1577;49.912;10.924;2023-07-08T10:29:53;35.60;34.90
3134;DHT22;1577;49.912;10.924;2023-07-08T10:32:36;35.10;34.70
3134;DHT22;1577;49.912;10.924;2023-07-08T10:35:19;34.80;33.60
3134;DHT22;1577;49.912;10.924;2023-07-08T10:37:59;34.40;34.60
3134;DHT22;1577;49.912;10.924;2023-07-08T10:40:48;34.30;35.90
3134;DHT22;1577;49.912;10.924;2023-07-08T10:51:53;33.30;36.90
3134;DHT22;1577;49.912;10.924;2023-07-08T11:05:46;32.30;38.10
3134;DHT22;1577;49.912;10.924;2023-07-08T11:10:52;32.10;37.60
3134;DHT22;1577;49.912;10.924;2023-07-08T11:13:20;32.00;37.40
3134;DHT22;1577;49.912;10.924;2023-07-08T11:18:52;32.00;37.50
3134;DHT22;1577;49.912;10.924;2023-07-08T11:21:38;32.10;38.60
3134;DHT22;1577;49.912;10.924;2023-07-08T11:24:13;32.00;38.40
3134;DHT22;1577;49.912;10.924;2023-07-08T11:29:34;31.90;38.20
3134;DHT22;1577;49.912;10.924;2023-07-08T11:32:03;31.70;37.90
3134;DHT22;1577;49.912;10.924;2023-07-08T11:34:29;31.70;38.10
3134;DHT22;1577;49.912;10.924;2023-07-08T11:36:58;31.60;37.90
3134;DHT22;1577;49.912;10.924;2023-07-08T11:39:33;31.60;37.80
3134;DHT22;1577;49.912;10.924;2023-07-08T11:42:19;31.60;38.50
3134;DHT22;1577;49.912;10.924;2023-07-08T11:44:54;31.60;37.90
3134;DHT22;1577;49.912;10.924;2023-07-08T11:47:38;31.50;38.50
3134;DHT22;1577;49.912;10.924;2023-07-08T11:53:02;31.50;37.20
3134;DHT22;1577;49.912;10.924;2023-07-08T11:55:47;31.50;36.40
3134;DHT22;1577;49.912;10.924;2023-07-08T11:58:25;31.50;38.40
3134;DHT22;1577;49.912;10.924;2023-07-08T12:03:23;31.80;40.40
3134;DHT22;1577;49.912;10.924;2023-07-08T12:05:56;31.80;38.30
3134;DHT22;1577;49.912;10.924;2023-07-08T12:08:33;31.90;38.80
3134;DHT22;1577;49.912;10.924;2023-07-08T12:10:59;31.70;37.20
3134;DHT22;1577;49.912;10.924;2023-07-08T12:13:25;31.60;38.20
3134;DHT22;1577;49.912;10.924;2023-07-08T12:15:52;31.60;37.70
3134;DHT22;1577;49.912;10.924;2023-07-08T12:18:35;31.60;37.90
3134;DHT22;1577;49.912;10.924;2023-07-08T12:21:01;31.60;41.30
3134;DHT22;1577;49.912;10.924;2023-07-08T12:23:29;31.60;39.20
3134;DHT22;1577;49.912;10.924;2023-07-08T12:25:56;31.50;38.00
3134;DHT22;1577;49.912;10.924;2023-07-08T12:28:23;31.50;38.60
3134;DHT22;1577;49.912;10.924;2023-07-08T12:30:50;31.50;38.30
3134;DHT22;1577;49.912;10.924;2023-07-08T12:33:19;31.60;38.50
3134;DHT22;1577;49.912;10.924;2023-07-08T12:35:50;31.50;38.70
3134;DHT22;1577;49.912;10.924;2023-07-08T12:40:47;31.70;39.00
3134;DHT22;1577;49.912;10.924;2023-07-08T12:43:16;31.70;37.80
3134;DHT22;1577;49.912;10.924;2023-07-08T12:45:42;31.70;38.20
3134;DHT22;1577;49.912;10.924;2023-07-08T12:48:09;31.60;38.50
3134;DHT22;1577;49.912;10.924;2023-07-08T12:50:34;31.60;38.60
3134;DHT22;1577;49.912;10.924;2023-07-08T12:53:00;31.50;37.80
3134;DHT22;1577;49.912;10.924;2023-07-08T12:55:29;31.60;38.20
3134;DHT22;1577;49.912;10.924;2023-07-08T12:57:56;31.80;41.50
3134;DHT22;1577;49.912;10.924;2023-07-08T13:00:26;31.90;38.10
3134;DHT22;1577;49.912;10.924;2023-07-08T13:03:13;31.80;38.20
3134;DHT22;1577;49.912;10.924;2023-07-08T13:05:40;31.80;38.60
3134;DHT22;1577;49.912;10.924;2023-07-08T13:08:15;31.80;39.60
3134;DHT22;1577;49.912;10.924;2023-07-08T13:10:42;31.70;38.00
3134;DHT22;1577;49.912;10.924;2023-07-08T13:13:12;31.70;37.60
3134;DHT22;1577;49.912;10.924;2023-07-08T13:15:40;31.70;38.80
3134;DHT22;1577;49.912;10.924;2023-07-08T13:18:36;31.80;38.90
3134;DHT22;1577;49.912;10.924;2023-07-08T13:21:04;31.90;38.10
3134;DHT22;1577;49.912;10.924;2023-07-08T13:23:30;32.00;39.10
3134;DHT22;1577;49.912;10.924;2023-07-08T13:25:56;32.00;39.50
3134;DHT22;1577;49.912;10.924;2023-07-08T13:28:27;31.90;38.60
3134;DHT22;1577;49.912;10.924;2023-07-08T13:31:02;32.00;37.80
3134;DHT22;1577;49.912;10.924;2023-07-08T13:33:32;32.10;37.60
3134;DHT22;1577;49.912;10.924;2023-07-08T13:36:01;32.00;37.30
3134;DHT22;1577;49.912;10.924;2023-07-08T13:38:32;32.00;37.30
3134;DHT22;1577;49.912;10.924;2023-07-08T13:41:04;31.90;38.00
3134;DHT22;1577;49.912;10.924;2023-07-08T13:43:32;31.90;37.60
3134;DHT22;1577;49.912;10.924;2023-07-08T13:45:59;31.80;37.50
3134;DHT22;1577;49.912;10.924;2023-07-08T13:51:01;31.60;38.30
3134;DHT22;1577;49.912;10.924;2023-07-08T13:56:13;31.60;37.80
3134;DHT22;1577;49.912;10.924;2023-07-08T13:58:47;31.50;37.50
3134;DHT22;1577;49.912;10.924;2023-07-08T14:01:20;31.40;37.50
3134;DHT22;1577;49.912;10.924;2023-07-08T14:03:47;31.40;37.50
3134;DHT22;1577;49.912;10.924;2023-07-08T14:06:17;31.40;37.80
3134;DHT22;1577;49.912;10.924;2023-07-08T14:08:44;31.50;38.60
3134;DHT22;1577;49.912;10.924;2023-07-08T14:11:10;31.50;38.00
3134;DHT22;1577;49.912;10.924;2023-07-08T14:13:36;31.50;38.20
3134;DHT22;1577;49.912;10.924;2023-07-08T14:16:03;31.50;38.50
3134;DHT22;1577;49.912;10.924;2023-07-08T14:18:32;31.30;37.50
3134;DHT22;1577;49.912;10.924;2023-07-08T14:20:57;31.30;37.50
3134;DHT22;1577;49.912;10.924;2023-07-08T14:23:24;31.50;37.00
3134;DHT22;1577;49.912;10.924;2023-07-08T14:25:49;31.50;37.20
3134;DHT22;1577;49.912;10.924;2023-07-08T14:28:15;31.50;37.90
3134;DHT22;1577;49.912;10.924;2023-07-08T14:30:45;31.50;38.70
3134;DHT22;1577;49.912;10.924;2023-07-08T14:33:13;31.60;38.90
3134;DHT22;1577;49.912;10.924;2023-07-08T14:35:40;31.60;40.50
3134;DHT22;1577;49.912;10.924;2023-07-08T14:38:12;31.70;37.80
3134;DHT22;1577;49.912;10.924;2023-07-08T14:40:40;31.70;37.60
3134;DHT22;1577;49.912;10.924;2023-07-08T14:45:42;31.80;37.70
3134;DHT22;1577;49.912;10.924;2023-07-08T14:48:12;31.80;37.40
3134;DHT22;1577;49.912;10.924;2023-07-08T14:50:39;31.70;37.10
3134;DHT22;1577;49.912;10.924;2023-07-08T14:53:08;31.60;38.50
3134;DHT22;1577;49.912;10.924;2023-07-08T14:55:37;31.70;41.80
3134;DHT22;1577;49.912;10.924;2023-07-08T14:58:03;31.60;39.00
3134;DHT22;1577;49.912;10.924;2023-07-08T15:00:29;31.60;42.80
3134;DHT22;1577;49.912;10.924;2023-07-08T15:02:55;31.70;38.80
3134;DHT22;1577;49.912;10.924;2023-07-08T15:05:23;31.70;37.80
3134;DHT22;1577;49.912;10.924;2023-07-08T15:07:51;31.50;37.50
3134;DHT22;1577;49.912;10.924;2023-07-08T15:10:18;31.50;39.40
3134;DHT22;1577;49.912;10.924;2023-07-08T15:12:45;31.50;37.90
3134;DHT22;1577;49.912;10.924;2023-07-08T15:15:26;31.50;37.90
3134;DHT22;1577;49.912;10.924;2023-07-08T15:17:52;31.50;39.80
3134;DHT22;1577;49.912;10.924;2023-07-08T15:20:18;31.60;38.90
3134;DHT22;1577;49.912;10.924;2023-07-08T15:22:44;31.70;40.60
3134;DHT22;1577;49.912;10.924;2023-07-08T15:25:12;31.70;40.30
3134;DHT22;1577;49.912;10.924;2023-07-08T15:27:57;31.80;43.00
3134;DHT22;1577;49.912;10.924;2023-07-08T15:30:24;31.80;39.90
3134;DHT22;1577;49.912;10.924;2023-07-08T15:32:51;31.70;39.30
3134;DHT22;1577;49.912;10.924;2023-07-08T15:35:20;31.80;38.90
3134;DHT22;1577;49.912;10.924;2023-07-08T15:37:47;31.70;40.90
3134;DHT22;1577;49.912;10.924;2023-07-08T15:40:14;31.80;41.60
3134;DHT22;1577;49.912;10.924;2023-07-08T15:42:41;31.80;38.90
3134;DHT22;1577;49.912;10.924;2023-07-08T15:45:28;31.70;37.90
3134;DHT22;1577;49.912;10.924;2023-07-08T15:47:54;31.60;37.90
3134;DHT22;1577;49.912;10.924;2023-07-08T15:50:23;31.60;37.30
3134;DHT22;1577;49.912;10.924;2023-07-08T15:52:50;31.60;38.20
3134;DHT22;1577;49.912;10.924;2023-07-08T15:55:23;31.50;38.90
3134;DHT22;1577;49.912;10.924;2023-07-08T15:57:55;31.40;38.20
3134;DHT22;1577;49.912;10.924;2023-07-08T16:00:24;31.20;37.50
3134;DHT22;1577;49.912;10.924;2023-07-08T16:02:54;31.10;37.80
3134;DHT22;1577;49.912;10.924;2023-07-08T16:05:20;31.20;39.50
3134;DHT22;1577;49.912;10.924;2023-07-08T16:07:47;31.20;39.90
3134;DHT22;1577;49.912;10.924;2023-07-08T16:10:14;31.00;37.70
3134;DHT22;1577;49.912;10.924;2023-07-08T16:12:39;31.00;38.00
3134;DHT22;1577;49.912;10.924;2023-07-08T16:15:11;31.10;38.10
3134;DHT22;1577;49.912;10.924;2023-07-08T16:17:37;31.10;37.90
3134;DHT22;1577;49.912;10.924;2023-07-08T16:22:41;31.20;40.00
3134;DHT22;1577;49.912;10.924;2023-07-08T16:25:07;31.30;41.80
3134;DHT22;1577;49.912;10.924;2023-07-08T16:27:36;31.40;38.80
3134;DHT22;1577;49.912;10.924;2023-07-08T16:30:02;31.50;37.80
3134;DHT22;1577;49.912;10.924;2023-07-08T16:32:27;31.50;37.90
3134;DHT22;1577;49.912;10.924;2023-07-08T16:34:53;31.50;37.80
3134;DHT22;1577;49.912;10.924;2023-07-08T16:37:19;31.50;37.50
3134;DHT22;1577;49.912;10.924;2023-07-08T16:39:44;31.40;37.60
3134;DHT22;1577;49.912;10.924;2023-07-08T16:42:14;31.30;40.90
3134;DHT22;1577;49.912;10.924;2023-07-08T16:44:40;31.40;38.30
3134;DHT22;1577;49.912;10.924;2023-07-08T16:47:08;31.40;38.50
3134;DHT22;1577;49.912;10.924;2023-07-08T16:49:33;31.40;39.30
3134;DHT22;1577;49.912;10.924;2023-07-08T16:51:59;31.40;39.00
3134;DHT22;1577;49.912;10.924;2023-07-08T16:54:25;31.20;38.90
3134;DHT22;1577;49.912;10.924;2023-07-08T16:56:51;31.10;39.00
3134;DHT22;1577;49.912;10.924;2023-07-08T16:59:16;31.20;39.20
3134;DHT22;1577;49.912;10.924;2023-07-08T17:01:44;31.20;40.90
3134;DHT22;1577;49.912;10.924;2023-07-08T17:04:12;31.30;39.80
3134;DHT22;1577;49.912;10.924;2023-07-08T17:06:38;31.20;38.60
3134;DHT22;1577;49.912;10.924;2023-07-08T17:09:03;31.20;38.00
3134;DHT22;1577;49.912;10.924;2023-07-08T17:11:32;31.10;41.20
3134;DHT22;1577;49.912;10.924;2023-07-08T17:13:58;31.10;42.10
3134;DHT22;1577;49.912;10.924;2023-07-08T17:16:28;31.10;39.70
3134;DHT22;1577;49.912;10.924;2023-07-08T17:18:56;31.10;40.40
3134;DHT22;1577;49.912;10.924;2023-07-08T17:21:21;31.00;41.30
3134;DHT22;1577;49.912;10.924;2023-07-08T17:23:47;30.90;44.10
3134;DHT22;1577;49.912;10.924;2023-07-08T17:26:17;30.80;40.70
3134;DHT22;1577;49.912;10.924;2023-07-08T17:28:43;30.80;39.80
3134;DHT22;1577;49.912;10.924;2023-07-08T17:31:17;30.80;40.60
3134;DHT22;1577;49.912;10.924;2023-07-08T17:33:43;30.70;39.50
3134;DHT22;1577;49.912;10.924;2023-07-08T17:36:10;30.70;41.60
3134;DHT22;1577;49.912;10.924;2023-07-08T17:38:48;30.70;39.60
3134;DHT22;1577;49.912;10.924;2023-07-08T17:41:16;30.70;39.20
3134;DHT22;1577;49.912;10.924;2023-07-08T17:43:42;30.60;42.60
3134;DHT22;1577;49.912;10.924;2023-07-08T17:46:13;30.60;39.80
3134;DHT22;1577;49.912;10.924;2023-07-08T17:48:39;30.60;39.60
3134;DHT22;1577;49.912;10.924;2023-07-08T17:51:14;30.60;39.90
3134;DHT22;1577;49.912;10.924;2023-07-08T17:53:40;30.60;39.80
3134;DHT22;1577;49.912;10.924;2023-07-08T17:56:17;30.60;41.40
3134;DHT22;1577;49.912;10.924;2023-07-08T17:58:45;30.50;43.50
3134;DHT22;1577;49.912;10.924;2023-07-08T18:01:11;30.50;43.60
3134;DHT22;1577;49.912;10.924;2023-07-08T18:03:37;30.40;40.50
3134;DHT22;1577;49.912;10.924;2023-07-08T18:06:04;30.30;40.10
3134;DHT22;1577;49.912;10.924;2023-07-08T18:08:30;30.30;40.60
3134;DHT22;1577;49.912;10.924;2023-07-08T18:10:55;30.20;41.10
3134;DHT22;1577;49.912;10.924;2023-07-08T18:13:22;30.20;41.80
3134;DHT22;1577;49.912;10.924;2023-07-08T18:15:48;30.10;42.50
3134;DHT22;1577;49.912;10.924;2023-07-08T18:18:14;30.00;42.40
3134;DHT22;1577;49.912;10.924;2023-07-08T18:20:49;29.90;42.60
3134;DHT22;1577;49.912;10.924;2023-07-08T18:23:21;29.80;42.70
3134;DHT22;1577;49.912;10.924;2023-07-08T18:25:48;29.80;43.20
3134;DHT22;1577;49.912;10.924;2023-07-08T18:28:13;29.70;43.00
3134;DHT22;1577;49.912;10.924;2023-07-08T18:30:41;29.60;43.00
3134;DHT22;1577;49.912;10.924;2023-07-08T18:33:16;29.50;43.20
3134;DHT22;1577;49.912;10.924;2023-07-08T18:35:42;29.40;44.00
3134;DHT22;1577;49.912;10.924;2023-07-08T18:38:09;29.30;44.90
3134;DHT22;1577;49.912;10.924;2023-07-08T18:40:36;29.20;45.10
3134;DHT22;1577;49.912;10.924;2023-07-08T18:43:21;29.10;45.00
3134;DHT22;1577;49.912;10.924;2023-07-08T18:45:49;29.00;45.80
3134;DHT22;1577;49.912;10.924;2023-07-08T18:48:16;28.90;46.50
3134;DHT22;1577;49.912;10.924;2023-07-08T18:50:42;28.80;47.10
3134;DHT22;1577;49.912;10.924;2023-07-08T18:53:16;28.70;48.30
3134;DHT22;1577;49.912;10.924;2023-07-08T18:55:43;28.60;49.20
3134;DHT22;1577;49.912;10.924;2023-07-08T18:58:13;28.50;49.70
3134;DHT22;1577;49.912;10.924;2023-07-08T19:00:39;28.40;50.50
3134;DHT22;1577;49.912;10.924;2023-07-08T19:03:11;28.30;51.10
3134;DHT22;1577;49.912;10.924;2023-07-08T19:05:41;28.20;51.90
3134;DHT22;1577;49.912;10.924;2023-07-08T19:08:07;28.10;52.30
3134;DHT22;1577;49.912;10.924;2023-07-08T19:10:33;27.90;52.20
3134;DHT22;1577;49.912;10.924;2023-07-08T19:12:59;27.70;52.00
3134;DHT22;1577;49.912;10.924;2023-07-08T19:15:27;27.60;52.50
3134;DHT22;1577;49.912;10.924;2023-07-08T19:17:54;27.50;51.90
3134;DHT22;1577;49.912;10.924;2023-07-08T19:20:24;27.40;51.60
3134;DHT22;1577;49.912;10.924;2023-07-08T19:22:51;27.40;52.10
3134;DHT22;1577;49.912;10.924;2023-07-08T19:25:22;27.40;53.40
3134;DHT22;1577;49.912;10.924;2023-07-08T19:27:49;27.30;53.40
3134;DHT22;1577;49.912;10.924;2023-07-08T19:30:15;27.20;53.60
3134;DHT22;1577;49.912;10.924;2023-07-08T19:32:56;27.00;54.10
3134;DHT22;1577;49.912;10.924;2023-07-08T19:35:24;26.90;54.00
3134;DHT22;1577;49.912;10.924;2023-07-08T19:37:51;26.70;54.30
3134;DHT22;1577;49.912;10.924;2023-07-08T19:40:19;26.70;54.30
3134;DHT22;1577;49.912;10.924;2023-07-08T19:42:47;26.50;54.40
3134;DHT22;1577;49.912;10.924;2023-07-08T19:45:22;26.30;54.50
3134;DHT22;1577;49.912;10.924;2023-07-08T19:47:49;26.20;54.60
3134;DHT22;1577;49.912;10.924;2023-07-08T19:50:16;26.20;55.00
3134;DHT22;1577;49.912;10.924;2023-07-08T19:52:42;26.20;55.60
3134;DHT22;1577;49.912;10.924;2023-07-08T19:55:08;26.10;55.80
3134;DHT22;1577;49.912;10.924;2023-07-08T19:57:45;25.90;56.20
3134;DHT22;1577;49.912;10.924;2023-07-08T20:02:51;25.80;57.20
3134;DHT22;1577;49.912;10.924;2023-07-08T20:05:17;25.70;57.60
3134;DHT22;1577;49.912;10.924;2023-07-08T20:07:43;25.60;58.20
3134;DHT22;1577;49.912;10.924;2023-07-08T20:10:17;25.40;58.10
3134;DHT22;1577;49.912;10.924;2023-07-08T20:12:43;25.30;58.20
3134;DHT22;1577;49.912;10.924;2023-07-08T20:15:10;25.20;58.60
3134;DHT22;1577;49.912;10.924;2023-07-08T20:17:36;25.20;58.70
3134;DHT22;1577;49.912;10.924;2023-07-08T20:20:02;25.00;59.00
3134;DHT22;1577;49.912;10.924;2023-07-08T20:22:27;24.90;59.10
3134;DHT22;1577;49.912;10.924;2023-07-08T20:24:54;24.70;59.00
3134;DHT22;1577;49.912;10.924;2023-07-08T20:27:24;24.60;59.80
3134;DHT22;1577;49.912;10.924;2023-07-08T20:29:49;24.60;60.20
3134;DHT22;1577;49.912;10.924;2023-07-08T20:32:15;24.40;60.60
3134;DHT22;1577;49.912;10.924;2023-07-08T20:34:41;24.40;61.40
3134;DHT22;1577;49.912;10.924;2023-07-08T20:37:13;24.30;61.70
3134;DHT22;1577;49.912;10.924;2023-07-08T20:39:40;24.30;62.10
3134;DHT22;1577;49.912;10.924;2023-07-08T20:42:10;24.20;62.40
3134;DHT22;1577;49.912;10.924;2023-07-08T20:44:36;24.20;62.60
3134;DHT22;1577;49.912;10.924;2023-07-08T20:47:02;24.10;63.30
3134;DHT22;1577;49.912;10.924;2023-07-08T20:49:28;23.90;63.70
3134;DHT22;1577;49.912;10.924;2023-07-08T20:51:53;23.80;64.40
3134;DHT22;1577;49.912;10.924;2023-07-08T20:54:19;23.70;64.10
3134;DHT22;1577;49.912;10.924;2023-07-08T20:56:44;23.70;64.20
3134;DHT22;1577;49.912;10.924;2023-07-08T20:59:18;23.50;65.00
3134;DHT22;1577;49.912;10.924;2023-07-08T21:01:44;23.40;65.80
3134;DHT22;1577;49.912;10.924;2023-07-08T21:04:09;23.50;66.30
3134;DHT22;1577;49.912;10.924;2023-07-08T21:06:35;23.40;66.60
3134;DHT22;1577;49.912;10.924;2023-07-08T21:09:01;23.40;67.20
3134;DHT22;1577;49.912;10.924;2023-07-08T21:11:29;23.30;67.50
3134;DHT22;1577;49.912;10.924;2023-07-08T21:13:56;23.20;68.10
3134;DHT22;1577;49.912;10.924;2023-07-08T21:16:24;23.00;68.40
3134;DHT22;1577;49.912;10.924;2023-07-08T21:18:51;22.80;68.60
3134;DHT22;1577;49.912;10.924;2023-07-08T21:21:24;22.70;69.60
3134;DHT22;1577;49.912;10.924;2023-07-08T21:23:50;22.80;69.60
3134;DHT22;1577;49.912;10.924;2023-07-08T21:26:28;22.70;69.80
3134;DHT22;1577;49.912;10.924;2023-07-08T21:28:59;22.60;70.40
3134;DHT22;1577;49.912;10.924;2023-07-08T21:31:25;22.50;70.90
3134;DHT22;1577;49.912;10.924;2023-07-08T21:33:51;22.50;71.10
3134;DHT22;1577;49.912;10.924;2023-07-08T21:36:23;22.50;71.00
3134;DHT22;1577;49.912;10.924;2023-07-08T21:38:51;22.50;70.60
3134;DHT22;1577;49.912;10.924;2023-07-08T21:41:17;22.40;70.50
3134;DHT22;1577;49.912;10.924;2023-07-08T21:43:44;22.30;70.30
3134;DHT22;1577;49.912;10.924;2023-07-08T21:46:09;22.10;70.50
3134;DHT22;1577;49.912;10.924;2023-07-08T21:48:36;22.10;70.30
3134;DHT22;1577;49.912;10.924;2023-07-08T21:51:02;22.20;69.50
3134;DHT22;1577;49.912;10.924;2023-07-08T21:53:32;22.00;69.30
3134;DHT22;1577;49.912;10.924;2023-07-08T21:55:58;21.90;69.70
3134;DHT22;1577;49.912;10.924;2023-07-08T21:58:25;21.80;70.20
3134;DHT22;1577;49.912;10.924;2023-07-08T22:00:51;21.80;70.70
3134;DHT22;1577;49.912;10.924;2023-07-08T22:03:19;21.80;70.80
3134;DHT22;1577;49.912;10.924;2023-07-08T22:05:45;21.70;70.90
3134;DHT22;1577;49.912;10.924;2023-07-08T22:08:16;21.60;71.30
3134;DHT22;1577;49.912;10.924;2023-07-08T22:10:44;21.50;71.70
3134;DHT22;1577;49.912;10.924;2023-07-08T22:13:25;21.40;72.20
3134;DHT22;1577;49.912;10.924;2023-07-08T22:15:52;21.40;72.50
3134;DHT22;1577;49.912;10.924;2023-07-08T22:18:19;21.30;72.70
3134;DHT22;1577;49.912;10.924;2023-07-08T22:20:51;21.30;73.10
3134;DHT22;1577;49.912;10.924;2023-07-08T22:23:18;21.20;73.30
3134;DHT22;1577;49.912;10.924;2023-07-08T22:25:44;21.10;73.60
3134;DHT22;1577;49.912;10.924;2023-07-08T22:28:10;21.10;74.10
3134;DHT22;1577;49.912;10.924;2023-07-08T22:30:43;21.10;73.60
3134;DHT22;1577;49.912;10.924;2023-07-08T22:33:11;21.10;73.60
3134;DHT22;1577;49.912;10.924;2023-07-08T22:35:37;21.00;74.10
3134;DHT22;1577;49.912;10.924;2023-07-08T22:38:07;21.00;73.80
3134;DHT22;1577;49.912;10.924;2023-07-08T22:40:33;20.80;73.80
3134;DHT22;1577;49.912;10.924;2023-07-08T22:43:01;20.70;73.90
3134;DHT22;1577;49.912;10.924;2023-07-08T22:45:27;20.70;74.00
3134;DHT22;1577;49.912;10.924;2023-07-08T22:47:55;20.80;74.40
3134;DHT22;1577;49.912;10.924;2023-07-08T22:50:25;20.70;74.30
3134;DHT22;1577;49.912;10.924;2023-07-08T22:52:52;20.70;75.00
3134;DHT22;1577;49.912;10.924;2023-07-08T22:55:30;20.70;75.10
3134;DHT22;1577;49.912;10.924;2023-07-08T22:58:00;20.60;75.20
3134;DHT22;1577;49.912;10.924;2023-07-08T23:00:27;20.70;74.80
3134;DHT22;1577;49.912;10.924;2023-07-08T23:02:53;20.70;74.20
3134;DHT22;1577;49.912;10.924;2023-07-08T23:05:22;20.60;74.20
3134;DHT22;1577;49.912;10.924;2023-07-08T23:07:49;20.40;74.90
3134;DHT22;1577;49.912;10.924;2023-07-08T23:10:15;20.40;75.10
3134;DHT22;1577;49.912;10.924;2023-07-08T23:12:41;20.30;75.40
3134;DHT22;1577;49.912;10.924;2023-07-08T23:15:07;20.20;75.70
3134;DHT22;1577;49.912;10.924;2023-07-08T23:17:37;20.20;75.90
3134;DHT22;1577;49.912;10.924;2023-07-08T23:20:04;20.10;76.00
3134;DHT22;1577;49.912;10.924;2023-07-08T23:22:31;20.10;76.20
3134;DHT22;1577;49.912;10.924;2023-07-08T23:24:57;20.10;76.40
3134;DHT22;1577;49.912;10.924;2023-07-08T23:27:23;20.10;76.10
3134;DHT22;1577;49.912;10.924;2023-07-08T23:29:49;20.00;76.50
3134;DHT22;1577;49.912;10.924;2023-07-08T23:32:14;20.10;77.40
3134;DHT22;1577;49.912;10.924;2023-07-08T23:34:42;20.10;77.90
3134;DHT22;1577;49.912;10.924;2023-07-08T23:37:11;20.10;78.50
3134;DHT22;1577;49.912;10.924;2023-07-08T23:39:38;20.00;78.90
3134;DHT22;1577;49.912;10.924;2023-07-08T23:42:04;19.90;79.10